createdAt,value
2023-02-19T00:01:29.987Z,4.10
2023-02-19T00:04:03.567Z,4.05
2023-02-19T00:06:37.009Z,3.92
2023-02-19T00:09:09.626Z,3.97
2023-02-19T00:11:42.236Z,4.03
2023-02-19T00:14:18.002Z,4.07
2023-02-19T00:16:52.816Z,4.18
2023-02-19T00:19:25.220Z,4.10
2023-02-19T00:21:57.320Z,4.28
2023-02-19T00:24:29.073Z,4.38
2023-02-19T00:27:02.595Z,4.25
2023-02-19T00:29:34.439Z,4.53
2023-02-19T00:32:08.930Z,4.70
2023-02-19T00:34:40.510Z,4.90
2023-02-19T00:37:11.679Z,5.43
2023-02-19T00:39:43.831Z,5.30
2023-02-19T00:42:15.482Z,5.85
2023-02-19T00:44:49.432Z,5.72
2023-02-19T00:48:09.219Z,6.32
2023-02-19T00:50:44.420Z,6.30
2023-02-19T00:53:16.729Z,5.78
2023-02-19T00:55:49.158Z,6.47
2023-02-19T00:58:21.704Z,6.55
2023-02-19T01:00:54.537Z,7.22
2023-02-19T01:03:36.943Z,7.30
2023-02-19T01:06:14.378Z,7.40
2023-02-19T01:08:47.279Z,7.10
2023-02-19T01:11:20.840Z,6.82
2023-02-19T01:13:53.093Z,8.13
2023-02-19T01:16:27.943Z,7.53
2023-02-19T01:19:01.434Z,8.00
2023-02-19T01:21:36.920Z,7.75
2023-02-19T01:24:09.374Z,8.25
2023-02-19T01:26:42.196Z,8.32
2023-02-19T01:29:14.394Z,8.73
2023-02-19T01:31:47.568Z,9.95
2023-02-19T01:34:19.703Z,7.30
2023-02-19T01:36:55.010Z,6.40
2023-02-19T01:39:27.314Z,6.43
2023-02-19T01:42:00.036Z,6.80
2023-02-19T01:45:19.006Z,6.68
2023-02-19T01:47:57.155Z,6.82
2023-02-19T01:50:33.192Z,7.40
2023-02-19T01:53:12.449Z,7.07
2023-02-19T01:55:45.956Z,6.22
2023-02-19T01:58:19.838Z,6.57
2023-02-19T02:00:52.509Z,7.47
2023-02-19T02:03:25.615Z,7.78
2023-02-19T02:06:04.174Z,7.28
2023-02-19T02:08:52.555Z,6.65
2023-02-19T02:11:25.239Z,6.63
2023-02-19T02:13:58.466Z,7.10
2023-02-19T02:16:38.058Z,6.70
2023-02-19T02:19:28.107Z,6.15
2023-02-19T02:22:08.696Z,6.60
2023-02-19T02:25:13.800Z,6.30
2023-02-19T02:27:58.520Z,6.60
2023-02-19T02:30:41.140Z,6.57
2023-02-19T02:33:30.878Z,7.03
2023-02-19T02:36:08.499Z,6.00
2023-02-19T02:38:44.463Z,6.22
2023-02-19T02:41:18.846Z,5.97
2023-02-19T02:43:51.165Z,6.18
2023-02-19T02:46:31.758Z,6.28
2023-02-19T02:49:08.785Z,6.30
2023-02-19T02:51:45.358Z,5.82
2023-02-19T02:54:32.516Z,6.03
2023-02-19T02:57:05.897Z,6.05
2023-02-19T02:59:40.998Z,6.88
2023-02-19T03:02:19.354Z,6.88
2023-02-19T03:05:10.498Z,6.85
2023-02-19T03:07:49.678Z,7.38
2023-02-19T03:10:27.537Z,7.65
2023-02-19T03:13:15.657Z,8.07
2023-02-19T03:16:04.465Z,7.60
2023-02-19T03:18:56.486Z,9.00
2023-02-19T03:21:32.004Z,8.50
2023-02-19T03:24:18.781Z,8.50
2023-02-19T03:26:54.202Z,8.55
2023-02-19T03:29:30.374Z,9.00
2023-02-19T03:32:06.599Z,8.18
2023-02-19T03:34:47.262Z,8.18
2023-02-19T03:37:27.332Z,8.75
2023-02-19T03:40:00.815Z,7.60
2023-02-19T03:42:44.642Z,7.45
2023-02-19T03:45:36.922Z,9.18
2023-02-19T03:48:25.778Z,8.20
2023-02-19T03:51:19.059Z,5.10
2023-02-19T03:54:06.061Z,4.43
2023-02-19T03:56:47.085Z,4.20
2023-02-19T03:59:24.481Z,4.18
2023-02-19T04:02:02.359Z,3.28
2023-02-19T04:04:39.830Z,3.92
2023-02-19T04:07:30.117Z,4.35
2023-02-19T04:10:02.719Z,4.60
2023-02-19T04:12:37.204Z,4.93
2023-02-19T04:15:13.498Z,4.78
2023-02-19T04:17:51.381Z,4.93
2023-02-19T04:20:26.419Z,4.50
2023-02-19T04:23:02.022Z,4.55
2023-02-19T04:25:36.023Z,5.10
2023-02-19T04:28:08.602Z,5.10
2023-02-19T04:30:41.079Z,4.57
2023-02-19T04:33:13.676Z,4.32
2023-02-19T04:35:45.985Z,3.35
2023-02-19T04:38:21.264Z,4.03
2023-02-19T04:40:53.503Z,3.90
2023-02-19T04:43:26.034Z,3.83
2023-02-19T04:45:58.236Z,3.97
2023-02-19T04:48:30.976Z,4.25
2023-02-19T04:51:03.053Z,4.53
2023-02-19T04:53:38.737Z,4.47
2023-02-19T04:56:11.737Z,4.40
2023-02-19T04:58:45.074Z,4.05
2023-02-19T05:01:17.758Z,4.10
2023-02-19T05:03:50.335Z,4.57
2023-02-19T05:06:22.935Z,3.97
2023-02-19T05:08:58.235Z,4.65
2023-02-19T05:11:30.615Z,5.30
2023-02-19T05:14:02.976Z,5.88
2023-02-19T05:16:35.375Z,5.10
2023-02-19T05:19:10.452Z,5.07
2023-02-19T05:21:43.473Z,5.55
2023-02-19T05:24:22.193Z,4.63
2023-02-19T05:26:54.213Z,5.50
2023-02-19T05:29:26.953Z,5.38
2023-02-19T05:31:59.286Z,5.35
2023-02-19T05:34:31.924Z,5.32
2023-02-19T05:37:04.173Z,5.00
2023-02-19T05:39:39.552Z,5.20
2023-02-19T05:42:11.809Z,5.10
2023-02-19T05:44:44.283Z,4.78
2023-02-19T05:47:16.667Z,5.15
2023-02-19T05:49:49.178Z,4.65
2023-02-19T05:52:21.441Z,4.90
2023-02-19T05:54:56.933Z,4.60
2023-02-19T06:00:31.635Z,4.88
2023-02-19T06:03:04.138Z,4.40
2023-02-19T06:05:36.632Z,4.50
2023-02-19T06:08:09.014Z,4.53
2023-02-19T06:10:44.913Z,4.78
2023-02-19T06:13:17.885Z,4.40
2023-02-19T06:15:50.655Z,5.22
2023-02-19T06:18:23.239Z,5.32
2023-02-19T06:20:55.812Z,5.95
2023-02-19T06:23:30.781Z,5.18
2023-02-19T06:26:15.746Z,4.88
2023-02-19T06:28:49.557Z,4.28
2023-02-19T06:31:26.265Z,4.63
2023-02-19T06:33:58.624Z,4.40
2023-02-19T06:36:31.467Z,4.32
2023-02-19T06:39:04.800Z,4.28
2023-02-19T06:41:40.266Z,4.30
2023-02-19T06:44:12.570Z,4.00
2023-02-19T06:46:45.195Z,3.10
2023-02-19T06:49:17.560Z,3.45
2023-02-19T06:51:50.212Z,3.42
2023-02-19T06:54:22.189Z,3.30
2023-02-19T06:56:59.419Z,3.47
2023-02-19T06:59:31.696Z,3.75
2023-02-19T07:02:03.890Z,3.35
2023-02-19T07:04:36.477Z,2.95
2023-02-19T07:07:08.787Z,3.40
2023-02-19T07:09:40.742Z,3.60
2023-02-19T07:12:20.158Z,3.90
2023-02-19T07:14:51.552Z,3.38
2023-02-19T07:17:23.701Z,3.30
2023-02-19T07:20:24.200Z,2.78
2023-02-19T07:22:56.734Z,2.90
2023-02-19T07:25:28.372Z,3.63
2023-02-19T07:28:03.101Z,3.72
2023-02-19T07:30:34.870Z,3.90
2023-02-19T07:33:10.095Z,3.50
2023-02-19T07:35:48.422Z,4.10
2023-02-19T07:38:23.116Z,3.85
2023-02-19T07:40:55.377Z,3.63
2023-02-19T07:43:32.714Z,3.80
2023-02-19T07:46:06.667Z,3.97
2023-02-19T07:48:48.624Z,3.92
2023-02-19T07:51:23.064Z,3.80
2023-02-19T07:53:55.588Z,3.70
2023-02-19T07:56:29.275Z,4.30
2023-02-19T07:59:04.139Z,4.10
2023-02-19T08:01:48.246Z,3.90
2023-02-19T08:04:20.305Z,3.85
2023-02-19T08:06:52.101Z,3.88
2023-02-19T08:09:24.466Z,4.15
2023-02-19T08:12:30.984Z,3.95
2023-02-19T08:15:05.728Z,3.42
2023-02-19T08:17:37.573Z,4.35
2023-02-19T08:20:10.357Z,3.92
2023-02-19T08:22:42.463Z,3.13
2023-02-19T08:25:14.426Z,3.50
2023-02-19T08:27:46.425Z,3.65
2023-02-19T08:30:21.455Z,3.30
2023-02-19T08:32:53.359Z,3.08
2023-02-19T08:35:25.835Z,3.25
2023-02-19T08:37:59.339Z,3.50
2023-02-19T08:40:31.584Z,3.42
2023-02-19T08:43:06.732Z,3.20
2023-02-19T08:45:41.911Z,2.97
2023-02-19T08:48:14.640Z,4.18
2023-02-19T08:50:46.742Z,3.42
2023-02-19T08:53:18.761Z,3.10
2023-02-19T08:55:51.311Z,2.78
2023-02-19T08:58:23.371Z,3.20
2023-02-19T09:00:58.832Z,2.78
2023-02-19T09:03:31.254Z,2.53
2023-02-19T09:06:03.549Z,2.83
2023-02-19T09:08:35.769Z,2.65
2023-02-19T09:11:09.596Z,2.40
2023-02-19T09:13:42.217Z,2.90
2023-02-19T09:16:17.571Z,2.40
2023-02-19T09:18:49.811Z,2.30
2023-02-19T09:24:25.936Z,2.88
2023-02-19T09:26:59.074Z,2.70
2023-02-19T09:29:32.412Z,2.65
2023-02-19T09:32:07.871Z,2.60
2023-02-19T09:34:40.498Z,2.63
2023-02-19T09:37:13.160Z,2.83
2023-02-19T09:39:45.418Z,2.45
2023-02-19T09:42:21.877Z,2.45
2023-02-19T09:44:58.817Z,2.08
2023-02-19T09:47:36.663Z,2.40
2023-02-19T09:50:13.621Z,2.35
2023-02-19T09:52:51.856Z,2.00
2023-02-19T09:55:35.034Z,2.38
2023-02-19T09:58:21.255Z,2.00
2023-02-19T10:00:54.453Z,2.05
2023-02-19T10:03:35.506Z,2.13
2023-02-19T10:06:11.565Z,1.95
2023-02-19T10:08:45.531Z,2.28
2023-02-19T10:11:19.487Z,2.10
2023-02-19T10:13:55.095Z,2.30
2023-02-19T10:16:30.408Z,1.88
2023-02-19T10:19:05.611Z,1.98
2023-02-19T10:21:37.868Z,1.92
2023-02-19T10:24:12.211Z,1.88
2023-02-19T10:26:44.387Z,2.13
2023-02-19T10:29:16.815Z,1.83
2023-02-19T10:31:49.403Z,2.05
2023-02-19T10:34:25.912Z,2.03
2023-02-19T10:36:58.210Z,2.13
2023-02-19T10:39:46.390Z,1.75
2023-02-19T10:42:24.668Z,1.90
2023-02-19T10:45:02.196Z,2.15
2023-02-19T10:47:36.250Z,2.08
2023-02-19T10:50:29.973Z,2.10
2023-02-19T10:53:03.918Z,2.17
2023-02-19T10:55:40.971Z,2.05
2023-02-19T10:58:27.590Z,1.85
2023-02-19T11:01:19.860Z,1.63
2023-02-19T11:03:54.590Z,1.75
2023-02-19T11:06:30.715Z,2.00
2023-02-19T11:09:04.491Z,1.50
2023-02-19T11:11:39.993Z,1.85
2023-02-19T11:14:20.174Z,1.52
2023-02-19T11:16:56.516Z,1.40
2023-02-19T11:19:42.795Z,1.50
2023-02-19T11:22:33.979Z,1.50
2023-02-19T11:25:10.149Z,1.70
2023-02-19T11:27:57.921Z,1.65
2023-02-19T11:30:42.774Z,1.40
2023-02-19T11:33:33.069Z,1.73
2023-02-19T11:36:30.465Z,1.42
2023-02-19T11:39:23.012Z,1.75
2023-02-19T11:42:12.500Z,1.42
2023-02-19T11:44:57.133Z,1.38
2023-02-19T11:47:57.321Z,1.38
2023-02-19T11:50:43.056Z,1.30
2023-02-19T11:53:24.317Z,1.70
2023-02-19T11:56:19.303Z,1.60
2023-02-19T11:59:08.115Z,1.45
2023-02-19T12:02:07.640Z,1.50
2023-02-19T12:05:07.456Z,1.45
2023-02-19T12:08:24.077Z,1.33
2023-02-19T12:11:23.492Z,1.40
2023-02-19T12:14:28.291Z,1.38
2023-02-19T12:17:07.492Z,1.50
2023-02-19T12:20:00.791Z,1.70
2023-02-19T12:22:34.472Z,1.20
2023-02-19T12:25:32.193Z,1.92
2023-02-19T12:28:45.213Z,1.38
2023-02-19T12:31:52.301Z,1.48
2023-02-19T12:34:43.872Z,1.70
2023-02-19T12:37:28.008Z,1.67
2023-02-19T12:40:19.050Z,1.27
2023-02-19T12:43:05.191Z,1.50
2023-02-19T12:45:46.184Z,1.42
2023-02-19T12:48:28.511Z,1.60
2023-02-19T12:51:06.391Z,1.42
2023-02-19T12:53:45.437Z,1.42
2023-02-19T12:56:22.492Z,1.67
2023-02-19T12:59:02.441Z,1.70
2023-02-19T13:01:47.157Z,1.40
2023-02-19T13:04:31.431Z,1.50
2023-02-19T13:07:09.308Z,1.20
2023-02-19T13:09:47.421Z,1.45
2023-02-19T13:12:26.060Z,1.30
2023-02-19T13:15:01.978Z,1.30
2023-02-19T13:17:42.424Z,1.48
2023-02-19T13:20:22.452Z,1.30
2023-02-19T13:23:15.902Z,1.42
2023-02-19T13:26:03.282Z,1.30
2023-02-19T13:28:52.808Z,1.40
2023-02-19T13:31:41.716Z,1.27
2023-02-19T13:34:25.827Z,1.40
2023-02-19T13:36:59.278Z,1.45
2023-02-19T13:39:31.526Z,1.23
2023-02-19T13:42:04.167Z,1.40
2023-02-19T13:44:37.581Z,1.67
2023-02-19T13:47:53.545Z,1.83
2023-02-19T13:50:30.299Z,1.55
2023-02-19T13:53:03.609Z,1.50
2023-02-19T13:55:53.284Z,1.65
2023-02-19T13:58:56.056Z,1.58
2023-02-19T14:01:57.758Z,1.75
2023-02-19T14:04:47.748Z,1.45
2023-02-19T14:07:39.986Z,1.20
2023-02-19T14:10:16.780Z,1.60
2023-02-19T14:12:48.978Z,1.50
2023-02-19T14:15:44.348Z,1.60
2023-02-19T14:18:46.940Z,1.55
2023-02-19T14:21:26.210Z,1.77
2023-02-19T14:24:02.078Z,1.20
2023-02-19T14:26:36.943Z,1.70
2023-02-19T14:29:12.346Z,1.40
2023-02-19T14:31:48.640Z,1.48
2023-02-19T14:34:23.213Z,1.40
2023-02-19T14:37:00.948Z,1.73
2023-02-19T14:39:40.625Z,1.40
2023-02-19T14:42:20.983Z,1.52
2023-02-19T14:44:57.125Z,1.40
2023-02-19T14:47:35.206Z,1.40
2023-02-19T14:50:10.568Z,1.40
2023-02-19T14:52:47.002Z,1.30
2023-02-19T14:55:28.306Z,1.35
2023-02-19T14:58:03.608Z,1.48
2023-02-19T15:00:38.748Z,1.33
2023-02-19T15:03:29.050Z,1.20
2023-02-19T15:06:05.504Z,1.42
2023-02-19T15:08:41.182Z,1.10
2023-02-19T15:11:22.243Z,1.27
2023-02-19T15:13:59.210Z,1.05
2023-02-19T15:16:32.773Z,1.00
2023-02-19T15:19:09.541Z,1.30
2023-02-19T15:21:47.612Z,1.10
2023-02-19T15:24:22.106Z,1.52
2023-02-19T15:26:59.177Z,1.30
2023-02-19T15:29:33.328Z,1.30
2023-02-19T15:32:05.177Z,1.25
2023-02-19T15:34:37.019Z,1.50
2023-02-19T15:37:16.188Z,1.42
2023-02-19T15:39:50.680Z,1.75
2023-02-19T15:42:28.653Z,1.27
2023-02-19T15:45:06.528Z,1.77
2023-02-19T15:47:42.498Z,1.50
2023-02-19T15:50:18.722Z,1.80
2023-02-19T15:52:53.285Z,1.48
2023-02-19T15:55:35.406Z,1.60
2023-02-19T15:58:19.772Z,1.70
2023-02-19T16:00:56.513Z,1.70
2023-02-19T16:03:33.412Z,1.30
2023-02-19T16:06:25.803Z,1.58
2023-02-19T16:09:05.996Z,1.30
2023-02-19T16:11:39.993Z,1.52
2023-02-19T16:14:34.368Z,1.23
2023-02-19T16:17:15.813Z,1.40
2023-02-19T16:19:50.486Z,1.55
2023-02-19T16:22:25.130Z,1.42
2023-02-19T16:24:59.265Z,1.50
2023-02-19T16:27:34.449Z,1.33
2023-02-19T16:30:13.031Z,1.88
2023-02-19T16:32:47.086Z,1.17
2023-02-19T16:35:40.064Z,1.48
2023-02-19T16:38:16.973Z,1.67
2023-02-19T16:41:16.587Z,2.00
2023-02-19T16:43:48.656Z,1.67
2023-02-19T16:46:23.110Z,1.38
2023-02-19T16:48:55.227Z,1.30
2023-02-19T16:51:29.486Z,1.77
2023-02-19T16:54:01.471Z,1.40
2023-02-19T16:56:33.286Z,1.27
2023-02-19T16:59:05.249Z,1.40
2023-02-19T17:01:40.466Z,1.70
2023-02-19T17:04:16.242Z,2.10
2023-02-19T17:06:48.108Z,1.60
2023-02-19T17:09:20.206Z,1.52
2023-02-19T17:11:52.049Z,2.08
2023-02-19T17:14:24.009Z,1.83
2023-02-19T17:17:00.447Z,1.45
2023-02-19T17:19:33.808Z,1.33
2023-02-19T17:22:05.751Z,1.90
2023-02-19T17:24:37.808Z,2.05
2023-02-19T17:27:13.550Z,2.20
2023-02-19T17:29:45.559Z,2.30
2023-02-19T17:32:19.881Z,2.10
2023-02-19T17:34:51.998Z,2.70
2023-02-19T17:37:23.568Z,2.72
2023-02-19T17:39:55.803Z,2.45
2023-02-19T17:42:27.598Z,3.08
2023-02-19T17:44:59.675Z,3.05
2023-02-19T17:47:50.616Z,2.90
2023-02-19T17:50:25.336Z,3.08
2023-02-19T17:52:57.062Z,2.90
2023-02-19T17:55:30.265Z,2.58
2023-02-19T17:58:01.856Z,2.72
2023-02-19T18:00:35.549Z,2.65
2023-02-19T18:03:10.749Z,2.67
2023-02-19T18:05:43.091Z,2.50
2023-02-19T18:08:15.148Z,2.60
2023-02-19T18:10:47.448Z,2.63
2023-02-19T18:13:19.346Z,2.70
2023-02-19T18:15:51.647Z,2.50
2023-02-19T18:18:44.583Z,2.63
2023-02-19T18:21:17.266Z,2.65
2023-02-19T18:23:50.219Z,2.75
2023-02-19T18:26:24.934Z,2.58
2023-02-19T18:28:56.920Z,2.85
2023-02-19T18:31:29.332Z,2.75
2023-02-19T18:34:04.000Z,2.70
2023-02-19T18:36:36.361Z,3.05
2023-02-19T18:39:08.385Z,3.28
2023-02-19T18:41:40.658Z,3.55
2023-02-19T18:44:12.605Z,3.50
2023-02-19T18:46:45.802Z,3.90
2023-02-19T18:49:21.260Z,3.40
2023-02-19T18:51:53.707Z,3.53
2023-02-19T18:54:26.918Z,3.35
2023-02-19T18:57:00.982Z,3.25
2023-02-19T18:59:32.968Z,3.03
2023-02-19T19:02:07.960Z,2.92
2023-02-19T19:04:43.372Z,2.90
2023-02-19T19:07:15.970Z,3.08
2023-02-19T19:09:47.841Z,3.20
2023-02-19T19:12:20.687Z,3.05
2023-02-19T19:14:53.613Z,3.50
2023-02-19T19:17:26.045Z,3.10
2023-02-19T19:20:00.793Z,2.58
2023-02-19T19:22:33.194Z,2.58
2023-02-19T19:25:05.490Z,2.53
2023-02-19T19:27:38.283Z,2.40
2023-02-19T19:30:17.770Z,2.78
2023-02-19T19:32:52.395Z,3.10
2023-02-19T19:35:28.924Z,3.08
2023-02-19T19:38:01.281Z,3.20
2023-02-19T19:40:33.603Z,3.00
2023-02-19T19:43:06.518Z,2.95
2023-02-19T19:45:38.587Z,2.80
2023-02-19T19:48:10.862Z,2.97
2023-02-19T19:50:45.542Z,2.92
2023-02-19T19:53:18.480Z,2.53
2023-02-19T19:55:50.398Z,2.72
2023-02-19T19:58:25.087Z,2.95
2023-02-19T20:01:06.282Z,3.60
2023-02-19T20:03:38.749Z,3.40
2023-02-19T20:06:13.331Z,3.17
2023-02-19T20:08:45.720Z,2.88
2023-02-19T20:11:17.510Z,3.17
2023-02-19T20:13:49.630Z,2.55
2023-02-19T20:16:27.139Z,3.05
2023-02-19T20:18:59.276Z,3.05
2023-02-19T20:21:33.951Z,3.28
2023-02-19T20:24:06.164Z,3.50
2023-02-19T20:26:37.934Z,3.17
2023-02-19T20:29:11.627Z,3.58
2023-02-19T20:31:43.404Z,3.25
2023-02-19T20:34:15.365Z,3.13
2023-02-19T20:36:51.584Z,3.13
2023-02-19T20:39:29.149Z,4.00
2023-02-19T20:42:02.582Z,3.20
2023-02-19T20:44:35.005Z,3.25
2023-02-19T20:47:07.211Z,3.30
2023-02-19T20:49:39.454Z,2.78
2023-02-19T20:52:14.011Z,3.15
2023-02-19T20:54:46.389Z,3.05
2023-02-19T20:57:18.590Z,3.10
2023-02-19T20:59:50.814Z,3.40
2023-02-19T21:02:24.821Z,3.22
2023-02-19T21:04:57.356Z,3.72
2023-02-19T21:07:32.010Z,3.42
2023-02-19T21:10:04.061Z,3.55
2023-02-19T21:12:36.907Z,3.53
2023-02-19T21:15:09.866Z,3.65
2023-02-19T21:17:41.983Z,3.20
2023-02-19T21:20:14.867Z,3.33
2023-02-19T21:22:50.552Z,3.55
2023-02-19T21:25:22.661Z,3.20
2023-02-19T21:27:54.499Z,3.20
2023-02-19T21:30:26.621Z,3.20
2023-02-19T21:32:58.440Z,3.17
2023-02-19T21:35:31.117Z,2.92
2023-02-19T21:38:05.952Z,3.28
2023-02-19T21:40:38.032Z,3.17
2023-02-19T21:43:09.740Z,3.40
2023-02-19T21:45:42.981Z,4.20
2023-02-19T21:48:14.833Z,3.53
2023-02-19T21:50:47.679Z,2.88
2023-02-19T21:53:21.977Z,3.42
2023-02-19T21:55:58.708Z,3.28
2023-02-19T21:58:30.841Z,2.60
2023-02-19T22:01:03.105Z,2.72
2023-02-19T22:03:35.109Z,2.70
2023-02-19T22:06:07.851Z,3.25
2023-02-19T22:08:42.450Z,2.88
2023-02-19T22:11:15.097Z,2.80
2023-02-19T22:13:47.571Z,2.60
2023-02-19T22:16:20.762Z,3.00
2023-02-19T22:18:54.969Z,2.50
2023-02-19T22:21:32.673Z,2.80
2023-02-19T22:24:08.151Z,2.92
2023-02-19T22:26:40.712Z,3.13
2023-02-19T22:29:15.469Z,2.78
2023-02-19T22:31:48.130Z,2.75
2023-02-19T22:34:20.874Z,3.38
2023-02-19T22:36:53.620Z,2.95
2023-02-19T22:39:30.300Z,3.35
2023-02-19T22:42:02.971Z,2.88
2023-02-19T22:44:35.652Z,3.13
2023-02-19T22:47:08.426Z,2.88
2023-02-19T22:49:43.861Z,3.00
2023-02-19T22:52:17.382Z,3.10
2023-02-19T22:54:55.591Z,3.05
2023-02-19T22:57:29.093Z,3.28
2023-02-19T23:00:03.655Z,3.90
2023-02-19T23:02:36.255Z,3.47
2023-02-19T23:05:08.879Z,3.38
2023-02-19T23:07:41.277Z,3.60
2023-02-19T23:10:17.001Z,3.45
2023-02-19T23:12:49.537Z,3.45
2023-02-19T23:15:21.797Z,3.50
2023-02-19T23:17:54.328Z,3.75
2023-02-19T23:20:26.659Z,3.88
2023-02-19T23:22:59.258Z,3.85
2023-02-19T23:25:33.999Z,3.53
2023-02-19T23:28:06.985Z,4.18
2023-02-19T23:30:39.142Z,4.13
2023-02-19T23:33:11.725Z,4.18
2023-02-19T23:35:43.921Z,3.85
2023-02-19T23:38:16.477Z,3.92
2023-02-19T23:40:51.454Z,4.53
2023-02-19T23:43:24.433Z,4.32
2023-02-19T23:45:57.345Z,4.65
2023-02-19T23:48:29.813Z,4.63
2023-02-19T23:51:02.624Z,4.00
2023-02-19T23:53:35.291Z,4.55
2023-02-19T23:56:10.841Z,4.80
2023-02-19T23:58:43.672Z,4.38
